Time;durP1;ratioP1;P1;durP2;ratioP2;P2;SDS_P1;SDS_P2;PMS_P1;PMS_P2;Temp;Humidity;BMP_temperature;BMP_pressure;BME280_temperature;BME280_humidity;BME280_pressure;Samples;Min_cycle;Max_cycle;Signal;HPM_P1;HPM_P2
2024/03/11 00:02:14;;;;;;;38.97;30.87;;;6.30;84.80;;;;;;5078835;28;20193;-87
2024/03/11 00:04:42;;;;;;;38.70;31.63;;;6.30;84.80;;;;;;5097493;28;20686;-87
2024/03/11 00:07:08;;;;;;;37.70;31.67;;;6.30;84.90;;;;;;5079306;28;20171;-86
2024/03/11 00:09:37;;;;;;;43.90;30.87;;;6.30;85.00;;;;;;5078984;28;20224;-87
2024/03/11 00:12:03;;;;;;;41.53;32.80;;;6.30;84.90;;;;;;5078804;28;20194;-89
2024/03/11 00:14:29;;;;;;;43.63;32.43;;;6.20;85.00;;;;;;5079652;28;20556;-87
2024/03/11 00:16:58;;;;;;;37.63;32.13;;;6.20;85.10;;;;;;5097260;28;20183;-88
2024/03/11 00:19:25;;;;;;;44.10;32.57;;;6.30;85.20;;;;;;5079046;28;20197;-87
2024/03/11 00:21:59;;;;;;;35.80;31.47;;;6.30;85.20;;;;;;5097103;28;20194;-87
2024/03/11 00:24:25;;;;;;;38.53;32.30;;;6.30;85.20;;;;;;5079731;28;20205;-87
2024/03/11 00:26:51;;;;;;;41.80;31.43;;;6.30;85.30;;;;;;5097567;28;20265;-86
2024/03/11 00:29:17;;;;;;;35.53;27.93;;;6.30;85.40;;;;;;5096964;28;20198;-85
2024/03/11 00:31:44;;;;;;;35.37;31.50;;;6.30;85.20;;;;;;5079241;28;20201;-89
2024/03/11 00:34:09;;;;;;;32.77;24.47;;;6.30;85.10;;;;;;5097515;28;20178;-87
2024/03/11 00:36:36;;;;;;;31.57;22.73;;;6.30;85.10;;;;;;5078854;28;20709;-87
2024/03/11 00:39:03;;;;;;;37.53;25.07;;;6.30;85.00;;;;;;5078762;28;20179;-88
2024/03/11 00:41:28;;;;;;;31.27;23.70;;;6.30;85.10;;;;;;5096938;28;20282;-88
2024/03/11 00:43:55;;;;;;;32.53;21.53;;;6.40;85.00;;;;;;5078205;28;20741;-86
2024/03/11 00:46:20;;;;;;;32.93;21.97;;;6.40;85.00;;;;;;5078621;28;20185;-86
2024/03/11 00:48:47;;;;;;;35.53;24.10;;;6.40;85.10;;;;;;5078415;28;20269;-87
2024/03/11 00:51:14;;;;;;;38.37;25.90;;;6.40;85.00;;;;;;5096740;28;20171;-87
2024/03/11 00:53:40;;;;;;;38.97;24.57;;;6.40;85.30;;;;;;5078294;28;20589;-87
2024/03/11 00:56:08;;;;;;;29.33;22.67;;;6.30;85.30;;;;;;5097196;28;20181;-88
2024/03/11 00:58:35;;;;;;;26.87;20.43;;;6.30;85.20;;;;;;5096325;28;20175;-86
2024/03/11 01:01:07;;;;;;;32.60;24.10;;;6.30;85.20;;;;;;5095314;28;20602;-85
2024/03/11 01:03:33;;;;;;;33.83;22.07;;;6.30;85.10;;;;;;5096202;28;20239;-88
2024/03/11 01:06:01;;;;;;;29.03;22.17;;;6.30;85.00;;;;;;5077749;28;20710;-86
2024/03/11 01:08:29;;;;;;;27.93;22.03;;;6.30;84.90;;;;;;5078541;28;20221;-87
2024/03/11 01:10:58;;;;;;;30.63;23.47;;;6.30;85.00;;;;;;5096758;28;20178;-87
2024/03/11 01:13:24;;;;;;;29.30;21.80;;;6.30;85.20;;;;;;5096201;28;20191;-87
2024/03/11 01:15:50;;;;;;;41.27;24.87;;;6.30;85.30;;;;;;5096768;28;20183;-86
2024/03/11 01:18:16;;;;;;;31.63;23.13;;;6.30;85.40;;;;;;5096227;28;20204;-86
2024/03/11 01:20:43;;;;;;;35.00;23.87;;;6.30;85.40;;;;;;5096608;28;20592;-86
2024/03/11 01:23:08;;;;;;;38.43;23.37;;;6.30;85.40;;;;;;5096103;28;20205;-87
2024/03/11 01:25:34;;;;;;;33.10;21.97;;;6.30;85.50;;;;;;5078316;28;20175;-86
2024/03/11 01:28:00;;;;;;;30.47;22.13;;;6.30;85.70;;;;;;5096151;28;20549;-86
2024/03/11 01:30:26;;;;;;;33.57;22.47;;;6.20;85.60;;;;;;5077749;28;20178;-87
2024/03/11 01:32:51;;;;;;;32.03;23.57;;;6.20;85.80;;;;;;5096352;28;20191;-87
2024/03/11 01:35:17;;;;;;;29.53;22.07;;;6.20;85.80;;;;;;5078355;28;20592;-88
2024/03/11 01:37:43;;;;;;;30.43;22.23;;;6.20;85.80;;;;;;5079593;28;20630;-87
2024/03/11 01:40:10;;;;;;;43.77;22.00;;;6.20;85.90;;;;;;5096809;28;20182;-86
2024/03/11 01:42:38;;;;;;;30.03;20.53;;;6.20;86.00;;;;;;5096542;28;20221;-88
2024/03/11 01:45:04;;;;;;;33.50;27.03;;;6.10;85.90;;;;;;5096259;28;20650;-88
2024/03/11 01:47:30;;;;;;;33.37;24.90;;;6.10;86.00;;;;;;5095865;28;20661;-87
2024/03/11 01:49:59;;;;;;;35.10;27.93;;;6.10;86.10;;;;;;5077961;28;20175;-87
2024/03/11 01:52:30;;;;;;;33.60;27.50;;;6.10;86.10;;;;;;5096070;28;20277;-87
2024/03/11 01:54:56;;;;;;;36.10;26.40;;;6.10;86.10;;;;;;5096561;28;20213;-87
2024/03/11 01:57:24;;;;;;;29.03;25.53;;;6.10;86.10;;;;;;5095975;28;20178;-86
2024/03/11 01:59:51;;;;;;;33.40;26.67;;;6.10;86.00;;;;;;5077829;28;20186;-89
2024/03/11 02:02:20;;;;;;;27.80;24.87;;;6.10;86.00;;;;;;5078292;28;20198;-87
2024/03/11 02:04:47;;;;;;;34.87;27.70;;;6.10;86.00;;;;;;5079427;28;20220;-86
2024/03/11 02:07:14;;;;;;;31.10;26.23;;;6.10;86.00;;;;;;5096677;28;20590;-87
2024/03/11 02:09:44;;;;;;;30.57;26.07;;;6.10;86.20;;;;;;5078131;28;20665;-86
2024/03/11 02:12:14;;;;;;;38.20;28.17;;;6.10;86.20;;;;;;5080352;28;20248;-88
2024/03/11 02:14:40;;;;;;;31.53;26.97;;;6.00;86.30;;;;;;5100282;28;20175;-87
2024/03/11 02:17:06;;;;;;;34.20;26.63;;;6.00;86.40;;;;;;5100291;28;20552;-86
2024/03/11 02:19:35;;;;;;;34.03;29.43;;;6.00;86.40;;;;;;5100103;28;20266;-86
2024/03/11 02:22:02;;;;;;;31.20;27.57;;;6.00;86.40;;;;;;5099669;28;20190;-86
2024/03/11 02:24:28;;;;;;;37.57;28.03;;;6.00;86.50;;;;;;5081253;28;20618;-87
2024/03/11 02:26:54;;;;;;;31.30;26.93;;;6.00;86.50;;;;;;5099842;28;20167;-86
2024/03/11 02:29:20;;;;;;;31.93;26.83;;;6.00;86.50;;;;;;5081863;28;20189;-86
2024/03/11 02:31:47;;;;;;;37.00;28.70;;;6.00;86.40;;;;;;5081681;28;20194;-86
2024/03/11 02:34:14;;;;;;;32.20;26.97;;;6.00;86.50;;;;;;5099800;28;20261;-87
2024/03/11 02:36:47;;;;;;;40.57;28.83;;;6.00;86.60;;;;;;5099795;28;20209;-86
2024/03/11 02:39:14;;;;;;;35.10;27.97;;;6.00;86.50;;;;;;5081428;28;20262;-88
2024/03/11 02:41:41;;;;;;;28.63;25.43;;;6.00;86.40;;;;;;5081241;28;20186;-87
2024/03/11 02:44:08;;;;;;;30.23;25.07;;;6.00;86.30;;;;;;5099378;28;20214;-87
2024/03/11 02:46:34;;;;;;;28.07;24.70;;;6.00;86.30;;;;;;5099538;28;20229;-86
2024/03/11 02:49:00;;;;;;;36.30;25.80;;;6.00;86.20;;;;;;5099733;28;20171;-88
2024/03/11 02:51:25;;;;;;;32.17;26.50;;;6.00;86.20;;;;;;5099298;28;20163;-87
2024/03/11 02:53:51;;;;;;;30.40;25.57;;;6.00;86.30;;;;;;5099979;28;20167;-87
2024/03/11 02:56:17;;;;;;;31.80;27.03;;;6.00;86.40;;;;;;5100202;28;20175;-89
2024/03/11 02:58:43;;;;;;;32.77;27.53;;;6.00;86.50;;;;;;5100025;28;20178;-89
2024/03/11 03:01:09;;;;;;;28.67;23.60;;;6.00;86.50;;;;;;5099824;28;20525;-88
2024/03/11 03:03:35;;;;;;;26.23;23.70;;;6.00;86.40;;;;;;5099495;28;20198;-88
2024/03/11 03:06:04;;;;;;;30.43;26.53;;;6.00;86.40;;;;;;5082696;28;20213;-89
2024/03/11 03:08:29;;;;;;;26.80;22.47;;;6.00;86.50;;;;;;5082055;28;20269;-86
2024/03/11 03:11:01;;;;;;;27.17;20.13;;;5.90;86.50;;;;;;5099346;28;20186;-87
2024/03/11 03:13:26;;;;;;;22.93;18.50;;;5.90;86.50;;;;;;5096970;28;20214;-85
2024/03/11 03:15:52;;;;;;;25.23;20.37;;;5.90;86.60;;;;;;5077944;28;20190;-86
2024/03/11 03:18:18;;;;;;;28.33;20.63;;;5.80;86.50;;;;;;5077971;28;20188;-86
2024/03/11 03:20:43;;;;;;;28.23;20.23;;;5.90;86.50;;;;;;5096261;28;20167;-86
2024/03/11 03:23:09;;;;;;;32.07;22.13;;;5.80;86.70;;;;;;5094753;28;20213;-86
2024/03/11 03:25:34;;;;;;;33.27;21.77;;;5.80;86.80;;;;;;5096289;28;20173;-85
2024/03/11 03:28:02;;;;;;;35.63;22.63;;;5.80;86.90;;;;;;5096004;28;20654;-86
2024/03/11 03:30:29;;;;;;;36.20;21.70;;;5.80;86.80;;;;;;5096062;28;20594;-87
2024/03/11 03:32:55;;;;;;;27.57;19.33;;;5.80;86.90;;;;;;5077734;28;20206;-86
2024/03/11 03:35:20;;;;;;;28.63;19.77;;;5.80;87.00;;;;;;5077745;28;20179;-85
2024/03/11 03:37:46;;;;;;;31.07;20.77;;;5.80;86.90;;;;;;5077678;28;20670;-85
2024/03/11 03:40:17;;;;;;;32.87;22.50;;;5.80;87.00;;;;;;5095877;28;20193;-86
2024/03/11 03:42:47;;;;;;;28.50;20.33;;;5.70;87.00;;;;;;5077150;28;20215;-85
2024/03/11 03:45:13;;;;;;;28.73;19.93;;;5.80;86.90;;;;;;5095479;28;20188;-85
2024/03/11 03:47:40;;;;;;;31.63;20.23;;;5.80;87.00;;;;;;5095615;28;20269;-85
2024/03/11 03:50:10;;;;;;;28.47;20.60;;;5.80;87.00;;;;;;5095647;28;20544;-86
2024/03/11 03:52:36;;;;;;;30.67;21.13;;;5.80;87.10;;;;;;5077200;28;20206;-85
2024/03/11 03:55:02;;;;;;;28.47;20.33;;;5.80;87.00;;;;;;5095337;28;20178;-84
2024/03/11 03:57:27;;;;;;;33.10;21.73;;;5.80;87.00;;;;;;5077535;28;20178;-86
2024/03/11 03:59:53;;;;;;;30.57;19.67;;;5.90;86.90;;;;;;5077389;28;20179;-85
2024/03/11 04:02:19;;;;;;;25.63;20.80;;;5.80;86.90;;;;;;5077068;28;20194;-86
2024/03/11 04:04:45;;;;;;;31.47;20.47;;;5.80;86.90;;;;;;5076735;28;20198;-86
2024/03/11 04:07:10;;;;;;;28.50;20.27;;;5.90;86.90;;;;;;5095301;28;20198;-86
2024/03/11 04:09:38;;;;;;;34.83;22.07;;;5.90;86.80;;;;;;5076972;28;20255;-86
2024/03/11 04:12:06;;;;;;;29.33;20.93;;;5.90;86.80;;;;;;5094860;28;20583;-86
2024/03/11 04:14:32;;;;;;;25.13;19.67;;;5.90;86.70;;;;;;5094981;28;20173;-85
2024/03/11 04:16:58;;;;;;;30.50;22.87;;;5.90;86.60;;;;;;5094781;28;20586;-86
2024/03/11 04:19:25;;;;;;;37.93;25.70;;;5.90;86.70;;;;;;5094747;28;20650;-86
2024/03/11 04:21:53;;;;;;;31.60;27.20;;;5.80;86.80;;;;;;5076361;28;20195;-84
2024/03/11 04:24:22;;;;;;;28.27;22.90;;;5.90;86.80;;;;;;5094714;28;20195;-86
2024/03/11 04:26:50;;;;;;;28.70;25.67;;;5.90;86.70;;;;;;5095068;28;20604;-86
2024/03/11 04:29:16;;;;;;;30.17;25.87;;;5.90;86.60;;;;;;5076467;28;20574;-86
2024/03/11 04:31:42;;;;;;;40.43;29.77;;;5.90;86.70;;;;;;5094491;28;20757;-84
2024/03/11 04:34:08;;;;;;;33.97;29.20;;;5.80;86.80;;;;;;5094758;28;20250;-86
2024/03/11 04:36:35;;;;;;;32.13;26.37;;;5.80;86.70;;;;;;5094724;28;20716;-86
2024/03/11 04:39:04;;;;;;;35.20;28.27;;;5.90;86.80;;;;;;5094319;28;20227;-86
2024/03/11 04:41:31;;;;;;;33.50;28.40;;;5.90;86.70;;;;;;5076162;28;20666;-85
2024/03/11 04:43:59;;;;;;;37.97;27.67;;;5.90;86.70;;;;;;5094331;28;20187;-86
2024/03/11 04:46:25;;;;;;;45.37;27.47;;;5.90;86.50;;;;;;5076381;28;20167;-86
2024/03/11 04:48:50;;;;;;;32.87;27.00;;;5.90;86.70;;;;;;5076299;28;20177;-87
2024/03/11 04:51:16;;;;;;;32.00;27.13;;;5.90;86.60;;;;;;5094404;28;20171;-86
2024/03/11 04:53:43;;;;;;;37.73;27.93;;;5.90;86.90;;;;;;5094426;28;20209;-86
2024/03/11 04:56:08;;;;;;;35.80;28.53;;;5.90;86.90;;;;;;5076190;28;20178;-86
2024/03/11 04:58:37;;;;;;;32.97;28.47;;;5.90;86.80;;;;;;5076006;28;20281;-86
2024/03/11 05:01:05;;;;;;;30.13;26.80;;;5.90;86.70;;;;;;5093900;28;20170;-84
2024/03/11 05:03:30;;;;;;;39.00;29.40;;;5.90;86.60;;;;;;5075837;28;20232;-86
2024/03/11 05:05:56;;;;;;;29.07;26.03;;;5.90;86.60;;;;;;5094083;28;20170;-86
2024/03/11 05:08:22;;;;;;;29.83;26.50;;;6.00;86.70;;;;;;5094201;28;20223;-86
2024/03/11 05:10:47;;;;;;;34.13;29.03;;;6.00;86.60;;;;;;5075893;28;20177;-87
2024/03/11 05:13:14;;;;;;;33.73;29.30;;;6.00;86.60;;;;;;5075891;28;20191;-86
2024/03/11 05:15:43;;;;;;;36.67;28.00;;;6.00;86.50;;;;;;5094464;28;20198;-86
2024/03/11 05:18:09;;;;;;;31.83;25.47;;;6.10;86.50;;;;;;5075911;28;20174;-86
2024/03/11 05:20:35;;;;;;;35.17;29.10;;;6.10;86.40;;;;;;5093884;28;20185;-86
2024/03/11 05:23:00;;;;;;;30.17;26.47;;;6.10;86.50;;;;;;5075651;28;20690;-86
2024/03/11 05:25:26;;;;;;;40.57;29.53;;;6.10;86.40;;;;;;5093951;28;20186;-84
2024/03/11 05:27:52;;;;;;;36.73;29.73;;;6.10;86.30;;;;;;5075587;28;20178;-85
2024/03/11 05:30:18;;;;;;;36.83;27.57;;;6.10;86.30;;;;;;5093541;28;20171;-84
2024/03/11 05:32:44;;;;;;;30.63;26.93;;;6.20;86.40;;;;;;5093719;28;20209;-86
2024/03/11 05:35:09;;;;;;;39.47;29.00;;;6.10;86.30;;;;;;5075591;28;20586;-85
2024/03/11 05:37:35;;;;;;;33.23;28.27;;;6.20;86.30;;;;;;5075508;28;20224;-86
2024/03/11 05:40:05;;;;;;;30.73;26.40;;;6.20;86.20;;;;;;5075448;28;20178;-86
2024/03/11 05:42:34;;;;;;;28.30;25.43;;;6.30;85.90;;;;;;5075302;28;20202;-86
2024/03/11 05:45:00;;;;;;;30.27;26.13;;;6.30;85.80;;;;;;5075681;28;20299;-86
2024/03/11 05:47:26;;;;;;;36.40;29.07;;;6.30;85.80;;;;;;5096888;28;20226;-86
2024/03/11 05:49:53;;;;;;;28.77;25.60;;;6.30;85.70;;;;;;5097922;28;20265;-86
2024/03/11 05:52:20;;;;;;;33.43;27.23;;;6.30;85.80;;;;;;5079260;28;20266;-85
2024/03/11 05:54:50;;;;;;;35.17;30.13;;;6.30;85.70;;;;;;5097768;28;20516;-88
2024/03/11 05:57:22;;;;;;;35.90;31.13;;;6.40;85.60;;;;;;5097814;28;20178;-86
2024/03/11 05:59:52;;;;;;;30.27;27.03;;;6.30;85.60;;;;;;5097586;28;20166;-86
2024/03/11 06:02:19;;;;;;;35.83;29.90;;;6.40;85.50;;;;;;5097895;28;20198;-86
2024/03/11 06:04:45;;;;;;;32.90;26.73;;;6.40;85.50;;;;;;5097431;28;20198;-86
2024/03/11 06:07:11;;;;;;;40.03;30.03;;;6.40;85.60;;;;;;5097489;28;20178;-85
2024/03/11 06:09:37;;;;;;;25.50;20.77;;;6.40;85.40;;;;;;5079225;28;20544;-86
2024/03/11 06:12:03;;;;;;;18.97;16.93;;;6.40;85.40;;;;;;5097317;28;20198;-85
2024/03/11 06:14:28;;;;;;;26.20;20.47;;;6.50;85.50;;;;;;5097108;28;20179;-86
2024/03/11 06:16:54;;;;;;;27.23;20.30;;;6.50;85.30;;;;;;5097246;28;20175;-87
2024/03/11 06:19:20;;;;;;;29.17;19.77;;;6.50;85.40;;;;;;5078898;28;20308;-86
2024/03/11 06:21:48;;;;;;;28.97;21.00;;;6.50;85.30;;;;;;5096927;28;20597;-85
2024/03/11 06:24:14;;;;;;;23.30;19.97;;;6.50;85.30;;;;;;5096822;28;20193;-86
2024/03/11 06:26:40;;;;;;;27.17;19.73;;;6.50;85.00;;;;;;5096708;28;20207;-86
2024/03/11 06:29:06;;;;;;;27.40;20.50;;;6.50;85.00;;;;;;5096603;28;20167;-86
2024/03/11 06:31:33;;;;;;;32.07;22.10;;;6.50;85.10;;;;;;5078638;28;20175;-85
2024/03/11 06:33:59;;;;;;;25.40;20.40;;;6.60;85.20;;;;;;5078784;28;20710;-85
2024/03/11 06:36:25;;;;;;;25.70;20.37;;;6.60;85.30;;;;;;5078595;28;20273;-86
2024/03/11 06:38:53;;;;;;;28.93;20.27;;;6.60;85.40;;;;;;5097263;28;20257;-88
2024/03/11 06:41:22;;;;;;;31.10;22.27;;;6.60;85.10;;;;;;5096896;28;20592;-87
2024/03/11 06:43:48;;;;;;;24.33;18.67;;;6.60;85.20;;;;;;5098512;28;20762;-86
2024/03/11 06:46:15;;;;;;;27.53;21.33;;;6.70;85.10;;;;;;5098002;28;20202;-86
2024/03/11 06:48:41;;;;;;;27.90;19.10;;;6.60;85.20;;;;;;5078516;28;20672;-85
2024/03/11 06:51:10;;;;;;;35.60;20.70;;;6.70;85.10;;;;;;5078420;28;20328;-85
2024/03/11 06:53:36;;;;;;;28.03;20.87;;;6.70;85.10;;;;;;5096448;28;20251;-85
2024/03/11 06:56:11;;;;;;;27.00;20.33;;;6.60;84.90;;;;;;5096804;28;20213;-84
2024/03/11 06:58:38;;;;;;;33.07;21.63;;;6.70;85.00;;;;;;5076888;28;20162;-85
2024/03/11 07:01:07;;;;;;;27.37;21.10;;;6.70;85.10;;;;;;5078737;28;20195;-84
2024/03/11 07:03:41;;;;;;;31.37;19.03;;;6.60;85.10;;;;;;5078130;28;20215;-86
2024/03/11 07:06:08;;;;;;;26.37;20.93;;;6.70;85.10;;;;;;5096336;28;20193;-86
2024/03/11 07:08:36;;;;;;;31.77;20.73;;;6.70;85.10;;;;;;5078177;28;20175;-86
2024/03/11 07:11:02;;;;;;;33.10;21.07;;;6.70;84.90;;;;;;5078167;28;20175;-86
2024/03/11 07:13:31;;;;;;;23.53;20.77;;;6.70;85.00;;;;;;5095878;28;20618;-88
2024/03/11 07:15:57;;;;;;;23.43;19.00;;;6.70;85.10;;;;;;5097090;28;20183;-87
2024/03/11 07:18:23;;;;;;;31.40;21.93;;;6.70;85.30;;;;;;5080366;28;20179;-88
2024/03/11 07:20:52;;;;;;;21.10;17.53;;;6.70;85.30;;;;;;5096293;28;20182;-88
2024/03/11 07:23:18;;;;;;;27.07;20.70;;;6.70;85.20;;;;;;5096270;28;20221;-87
2024/03/11 07:25:44;;;;;;;27.43;20.90;;;6.70;85.30;;;;;;5078830;28;20179;-87
2024/03/11 07:28:09;;;;;;;24.30;18.87;;;6.80;85.30;;;;;;5078234;28;20228;-87
2024/03/11 07:30:35;;;;;;;24.13;20.70;;;6.80;85.40;;;;;;5096143;28;20236;-86
2024/03/11 07:33:14;;;;;;;22.27;19.10;;;6.80;85.20;;;;;;5077929;28;20201;-87
2024/03/11 07:35:43;;;;;;;22.20;17.57;;;6.80;85.10;;;;;;5096173;28;20186;-87
2024/03/11 07:38:10;;;;;;;23.07;19.27;;;6.80;84.90;;;;;;5078236;28;20185;-87
2024/03/11 07:40:37;;;;;;;24.87;20.27;;;6.80;85.00;;;;;;5096243;28;20198;-87
2024/03/11 07:43:03;;;;;;;27.53;18.57;;;6.80;85.00;;;;;;5095607;28;20286;-87
2024/03/11 07:45:29;;;;;;;23.30;19.77;;;6.80;84.70;;;;;;5095573;28;20194;-87
2024/03/11 07:47:55;;;;;;;25.50;18.43;;;6.90;85.00;;;;;;5096309;28;20171;-88
2024/03/11 07:50:24;;;;;;;26.47;21.13;;;6.90;85.10;;;;;;5077862;28;20548;-88
2024/03/11 07:52:50;;;;;;;26.47;20.63;;;6.90;84.80;;;;;;5095399;28;20209;-87
2024/03/11 07:55:17;;;;;;;26.07;21.07;;;6.90;84.70;;;;;;5077362;28;20186;-86
2024/03/11 07:57:44;;;;;;;24.97;20.97;;;7.00;84.60;;;;;;5095393;28;20167;-86
2024/03/11 08:00:10;;;;;;;24.27;19.17;;;7.00;84.70;;;;;;5095695;28;20173;-85
2024/03/11 08:02:35;;;;;;;32.53;24.13;;;7.10;84.80;;;;;;5077063;28;20734;-87
2024/03/11 08:05:02;;;;;;;27.53;21.63;;;7.10;84.80;;;;;;5095051;28;20251;-87
2024/03/11 08:07:32;;;;;;;26.77;21.57;;;7.20;84.60;;;;;;5076984;28;20175;-87
2024/03/11 08:10:00;;;;;;;30.57;21.23;;;7.20;84.30;;;;;;5076714;28;20178;-87
2024/03/11 08:12:27;;;;;;;28.97;22.17;;;7.20;84.20;;;;;;5077461;28;20198;-88
2024/03/11 08:14:53;;;;;;;31.93;27.00;;;7.20;84.40;;;;;;5077193;28;20202;-86
2024/03/11 08:17:19;;;;;;;34.23;28.47;;;7.30;84.70;;;;;;5095333;28;20634;-88
2024/03/11 08:19:44;;;;;;;31.37;28.17;;;7.30;84.20;;;;;;5076848;28;20178;-86
2024/03/11 08:22:10;;;;;;;31.37;26.93;;;7.30;84.50;;;;;;5076589;28;20202;-86
2024/03/11 08:24:36;;;;;;;36.30;28.67;;;7.30;84.40;;;;;;5076990;28;20588;-87
2024/03/11 08:27:04;;;;;;;35.57;28.60;;;7.30;84.20;;;;;;5094994;28;20638;-86
2024/03/11 08:29:31;;;;;;;29.10;26.27;;;7.30;84.30;;;;;;5076455;28;20167;-86
2024/03/11 08:31:57;;;;;;;30.93;25.87;;;7.30;84.30;;;;;;5076398;28;20324;-86
2024/03/11 08:34:23;;;;;;;34.83;31.00;;;7.30;84.30;;;;;;5076407;28;20231;-86
2024/03/11 08:36:48;;;;;;;27.37;24.43;;;7.30;84.30;;;;;;5094558;28;20171;-87
2024/03/11 08:39:14;;;;;;;34.57;29.37;;;7.30;84.00;;;;;;5094587;28;20175;-87
2024/03/11 08:41:39;;;;;;;31.80;28.17;;;7.30;84.50;;;;;;5094457;28;20206;-88
2024/03/11 08:44:07;;;;;;;29.10;26.17;;;7.30;84.50;;;;;;5076230;28;20198;-88
2024/03/11 08:46:34;;;;;;;30.50;27.30;;;7.30;84.20;;;;;;5094646;28;20201;-87
2024/03/11 08:48:59;;;;;;;32.93;27.90;;;7.30;84.00;;;;;;5094407;28;20167;-86
2024/03/11 08:51:26;;;;;;;35.07;29.77;;;7.30;84.30;;;;;;5076168;28;20706;-86
2024/03/11 08:53:51;;;;;;;29.80;26.70;;;7.30;84.40;;;;;;5094342;28;20165;-87
2024/03/11 08:56:17;;;;;;;31.07;27.47;;;7.30;84.10;;;;;;5094548;28;20245;-86
2024/03/11 08:58:43;;;;;;;32.90;29.40;;;7.30;84.20;;;;;;5094314;28;20253;-86
2024/03/11 09:01:09;;;;;;;36.10;28.37;;;7.30;84.20;;;;;;5094396;28;20182;-87
2024/03/11 09:03:35;;;;;;;32.03;28.57;;;7.30;84.40;;;;;;5076355;28;20212;-86
2024/03/11 09:06:02;;;;;;;33.57;28.70;;;7.30;84.60;;;;;;5076042;28;20262;-87
2024/03/11 09:08:28;;;;;;;32.27;27.97;;;7.30;84.30;;;;;;5075857;28;20248;-87
2024/03/11 09:10:53;;;;;;;34.43;26.57;;;7.30;84.40;;;;;;5094094;28;20662;-87
2024/03/11 09:13:19;;;;;;;40.47;29.67;;;7.30;84.50;;;;;;5093752;28;20226;-87
2024/03/11 09:15:44;;;;;;;32.83;27.23;;;7.30;84.70;;;;;;5094199;28;20170;-88
2024/03/11 09:18:10;;;;;;;38.40;28.50;;;7.30;84.80;;;;;;5075991;28;20193;-88
2024/03/11 09:20:36;;;;;;;33.53;27.50;;;7.30;84.70;;;;;;5074973;28;20178;-88
2024/03/11 09:23:02;;;;;;;34.53;28.63;;;7.30;84.80;;;;;;5075620;28;20202;-87
2024/03/11 09:25:30;;;;;;;33.30;27.77;;;7.30;84.70;;;;;;5093626;28;20166;-88
2024/03/11 09:28:02;;;;;;;31.37;27.97;;;7.30;84.80;;;;;;5093733;28;20163;-88
2024/03/11 09:30:29;;;;;;;32.30;27.20;;;7.30;84.90;;;;;;5093864;28;20151;-87
2024/03/11 09:32:55;;;;;;;32.50;27.00;;;7.30;84.80;;;;;;5093649;28;20221;-89
2024/03/11 09:35:21;;;;;;;32.60;27.47;;;7.30;85.00;;;;;;5075640;28;20224;-87
2024/03/11 09:37:52;;;;;;;33.13;28.90;;;7.30;84.90;;;;;;5075655;28;20180;-87
2024/03/11 09:40:19;;;;;;;31.33;28.03;;;7.30;85.10;;;;;;5093860;28;20150;-87
2024/03/11 09:42:49;;;;;;;28.50;25.63;;;7.30;85.10;;;;;;5093481;28;20191;-87
2024/03/11 09:45:18;;;;;;;32.90;28.97;;;7.30;85.20;;;;;;5075613;28;20174;-87
2024/03/11 09:47:57;;;;;;;27.77;22.70;;;7.30;85.20;;;;;;5093663;28;20170;-87
2024/03/11 09:50:28;;;;;;;25.90;22.97;;;7.30;85.10;;;;;;5075610;28;20178;-87
2024/03/11 09:53:06;;;;;;;24.30;21.33;;;7.30;85.20;;;;;;5075384;28;20210;-87
2024/03/11 09:55:35;;;;;;;27.47;21.03;;;7.30;85.20;;;;;;5075325;28;20634;-88
2024/03/11 09:58:10;;;;;;;28.73;22.20;;;7.30;85.10;;;;;;5075353;28;20170;-88
2024/03/11 10:00:48;;;;;;;28.00;22.70;;;7.40;85.00;;;;;;5093524;28;20147;-87
2024/03/11 10:03:14;;;;;;;26.60;19.90;;;7.50;85.10;;;;;;5093263;28;20198;-88
2024/03/11 10:05:40;;;;;;;28.07;22.63;;;7.50;85.00;;;;;;5093410;28;20249;-87
2024/03/11 10:08:05;;;;;;;25.60;21.00;;;7.60;85.20;;;;;;5093462;28;20206;-87
2024/03/11 10:10:34;;;;;;;24.13;20.13;;;7.60;84.60;;;;;;5093161;28;20647;-87
2024/03/11 10:13:00;;;;;;;25.70;21.30;;;7.60;84.90;;;;;;5075318;28;20690;-87
2024/03/11 10:15:32;;;;;;;25.20;20.60;;;7.60;84.90;;;;;;5075861;28;20182;-87
2024/03/11 10:18:25;;;;;;;29.93;23.13;;;7.70;85.10;;;;;;5075288;28;20167;-87
2024/03/11 10:20:58;;;;;;;26.87;19.30;;;7.70;84.90;;;;;;5075214;28;20654;-87
2024/03/11 10:23:28;;;;;;;30.23;22.77;;;7.70;84.90;;;;;;5074863;28;20206;-86
2024/03/11 10:26:17;;;;;;;34.87;21.33;;;7.80;84.90;;;;;;5093565;28;20167;-87
2024/03/11 10:28:49;;;;;;;27.63;22.73;;;7.80;84.90;;;;;;5093198;28;20151;-87
2024/03/11 10:31:24;;;;;;;27.57;21.73;;;7.80;84.80;;;;;;5093433;28;20230;-87
2024/03/11 10:33:54;;;;;;;30.70;22.60;;;7.80;84.80;;;;;;5096572;28;20165;-87
2024/03/11 10:36:24;;;;;;;37.23;24.17;;;7.90;84.90;;;;;;5078813;28;20175;-87
2024/03/11 10:38:53;;;;;;;32.20;22.63;;;7.90;85.00;;;;;;5079509;28;20178;-88
2024/03/11 10:41:20;;;;;;;30.83;22.97;;;7.90;84.90;;;;;;5097272;28;20257;-88
2024/03/11 10:43:51;;;;;;;30.57;21.90;;;7.90;85.20;;;;;;5078569;28;20736;-88
2024/03/11 10:46:18;;;;;;;31.13;22.97;;;7.90;85.10;;;;;;5078629;28;20167;-88
2024/03/11 10:48:46;;;;;;;26.87;22.63;;;7.90;85.40;;;;;;5078694;28;20251;-87
2024/03/11 10:51:19;;;;;;;28.10;22.63;;;7.90;85.30;;;;;;5096898;28;20166;-87
2024/03/11 10:53:45;;;;;;;28.43;23.17;;;8.00;85.60;;;;;;5078518;28;20320;-87
2024/03/11 10:56:19;;;;;;;26.90;21.40;;;7.90;85.30;;;;;;5096387;28;20175;-87
2024/03/11 10:59:02;;;;;;;33.53;23.30;;;7.90;85.30;;;;;;5078194;28;20170;-87
2024/03/11 11:01:33;;;;;;;27.90;20.83;;;7.80;85.50;;;;;;5078294;28;20171;-87
2024/03/11 11:04:05;;;;;;;30.80;25.57;;;7.80;85.40;;;;;;5078189;28;20719;-88
2024/03/11 11:06:33;;;;;;;34.93;29.73;;;7.80;86.00;;;;;;5078888;28;20235;-87
2024/03/11 11:09:10;;;;;;;35.00;28.43;;;7.80;86.00;;;;;;5078324;28;20277;-87
2024/03/11 11:11:37;;;;;;;33.03;28.37;;;7.80;86.10;;;;;;5096874;28;20204;-87
2024/03/11 11:14:03;;;;;;;35.20;27.60;;;7.80;85.90;;;;;;5096399;28;20177;-87
2024/03/11 11:16:29;;;;;;;37.10;28.47;;;7.80;86.20;;;;;;5078135;28;20170;-87
2024/03/11 11:18:56;;;;;;;30.27;27.20;;;7.80;86.20;;;;;;5096456;28;20175;-87
2024/03/11 11:21:23;;;;;;;28.30;25.27;;;7.80;86.20;;;;;;5096572;28;20193;-87
2024/03/11 11:23:51;;;;;;;29.97;26.37;;;7.90;86.20;;;;;;5078128;28;20738;-87
2024/03/11 11:26:45;;;;;;;31.17;27.83;;;7.90;86.20;;;;;;5096730;28;20163;-88
2024/03/11 11:29:10;;;;;;;31.40;27.77;;;7.80;86.20;;;;;;5096155;28;20212;-87
2024/03/11 11:31:38;;;;;;;37.33;28.27;;;7.80;86.20;;;;;;5095731;28;20246;-88
2024/03/11 11:34:06;;;;;;;34.57;28.47;;;7.80;86.60;;;;;;5077578;28;20198;-87
2024/03/11 11:36:32;;;;;;;35.00;25.37;;;7.80;86.50;;;;;;5077777;28;20171;-87
2024/03/11 11:39:17;;;;;;;34.10;28.13;;;7.80;86.70;;;;;;5078092;28;20178;-87
2024/03/11 11:41:45;;;;;;;32.60;27.80;;;7.80;86.60;;;;;;5077974;28;20738;-88
2024/03/11 11:44:33;;;;;;;31.87;27.00;;;7.90;86.80;;;;;;5077266;28;20580;-87
2024/03/11 11:47:03;;;;;;;31.90;26.87;;;7.90;86.80;;;;;;5078123;28;20668;-87
2024/03/11 11:49:34;;;;;;;31.90;26.93;;;7.90;87.10;;;;;;5095900;28;20169;-87
2024/03/11 11:52:00;;;;;;;37.77;27.70;;;7.80;87.20;;;;;;5077453;28;20259;-87
2024/03/11 11:54:28;;;;;;;36.50;29.03;;;7.90;87.50;;;;;;5095778;28;20166;-87
2024/03/11 11:57:18;;;;;;;33.93;28.60;;;7.90;87.60;;;;;;5095591;28;20167;-87
2024/03/11 12:00:13;;;;;;;35.33;28.60;;;7.90;87.70;;;;;;5096037;28;20151;-86
2024/03/11 12:02:43;;;;;;;33.73;28.93;;;7.90;87.50;;;;;;5077539;28;20281;-88
2024/03/11 12:05:15;;;;;;;37.57;27.70;;;7.90;87.50;;;;;;5095589;28;20159;-87
2024/03/11 12:07:42;;;;;;;31.03;27.73;;;8.00;87.40;;;;;;5077753;28;20265;-86
2024/03/11 12:10:10;;;;;;;35.97;28.90;;;8.00;87.60;;;;;;5096101;28;20171;-86
2024/03/11 12:12:43;;;;;;;37.97;29.30;;;8.00;87.30;;;;;;5077197;28;20201;-87
2024/03/11 12:15:21;;;;;;;30.60;26.67;;;8.00;87.40;;;;;;5077132;28;20528;-88
2024/03/11 12:17:51;;;;;;;34.80;27.20;;;8.00;87.40;;;;;;5095444;28;20568;-88
2024/03/11 12:20:30;;;;;;;39.13;28.63;;;8.00;87.40;;;;;;5095010;28;20170;-87
2024/03/11 12:22:57;;;;;;;33.43;27.77;;;8.00;87.30;;;;;;5095315;28;20178;-86
2024/03/11 12:25:24;;;;;;;37.37;27.50;;;8.10;87.50;;;;;;5095313;28;20699;-90
2024/03/11 12:27:54;;;;;;;39.13;27.60;;;8.10;87.60;;;;;;5076846;28;20647;-88
2024/03/11 12:30:27;;;;;;;29.80;25.87;;;8.10;87.50;;;;;;5077078;28;20595;-87
2024/03/11 12:33:04;;;;;;;32.20;27.70;;;8.10;87.40;;;;;;5095037;28;20209;-87
2024/03/11 12:35:32;;;;;;;34.17;27.67;;;8.10;87.30;;;;;;5076857;28;20236;-87
2024/03/11 12:37:58;;;;;;;39.23;27.33;;;8.20;87.70;;;;;;5076718;28;20594;-87
2024/03/11 12:40:34;;;;;;;39.90;28.37;;;8.10;87.50;;;;;;5094831;28;20661;-87